sensor_id;sensor_type;location;lat;lon;timestamp;pressure;altitude;pressure_sealevel;temperature;humidity
60258;BME280;46115;44.484;11.314;2023-06-22T00:03:50;100558.88;;;26.64;53.79
60258;BME280;46115;44.484;11.314;2023-06-22T00:07:52;100556.47;;;26.69;54.18
60258;BME280;46115;44.484;11.314;2023-06-22T00:11:55;100552.06;;;26.21;56.58
60258;BME280;46115;44.484;11.314;2023-06-22T00:15:59;100543.84;;;26.06;55.11
60258;BME280;46115;44.484;11.314;2023-06-22T00:20:02;100545.19;;;26.10;55.29
60258;BME280;46115;44.484;11.314;2023-06-22T00:24:08;100543.69;;;25.91;56.52
60258;BME280;46115;44.484;11.314;2023-06-22T00:28:10;100553.94;;;26.20;55.72
60258;BME280;46115;44.484;11.314;2023-06-22T00:32:14;100531.50;;;25.95;56.63
60258;BME280;46115;44.484;11.314;2023-06-22T00:36:18;100526.63;;;25.66;57.41
60258;BME280;46115;44.484;11.314;2023-06-22T00:40:20;100533.03;;;25.65;56.66
60258;BME280;46115;44.484;11.314;2023-06-22T00:44:23;100518.47;;;25.91;56.86
60258;BME280;46115;44.484;11.314;2023-06-22T00:48:27;100513.75;;;25.85;56.16
60258;BME280;46115;44.484;11.314;2023-06-22T00:52:30;100504.81;;;25.68;56.83
60258;BME280;46115;44.484;11.314;2023-06-22T00:56:34;100523.09;;;25.33;57.44
60258;BME280;46115;44.484;11.314;2023-06-22T01:00:39;100522.72;;;25.12;58.62
60258;BME280;46115;44.484;11.314;2023-06-22T01:04:44;100522.38;;;25.15;58.74
60258;BME280;46115;44.484;11.314;2023-06-22T01:08:50;100519.94;;;24.87;59.30
60258;BME280;46115;44.484;11.314;2023-06-22T01:12:59;100506.91;;;24.75;59.90
60258;BME280;46115;44.484;11.314;2023-06-22T01:17:03;100511.13;;;24.69;60.61
60258;BME280;46115;44.484;11.314;2023-06-22T01:21:12;100494.53;;;24.56;60.97
60258;BME280;46115;44.484;11.314;2023-06-22T01:25:20;100502.81;;;24.63;60.93
60258;BME280;46115;44.484;11.314;2023-06-22T01:29:30;100505.69;;;24.61;60.32
60258;BME280;46115;44.484;11.314;2023-06-22T01:33:36;100502.88;;;24.71;59.73
60258;BME280;46115;44.484;11.314;2023-06-22T01:37:39;100513.34;;;24.74;59.60
60258;BME280;46115;44.484;11.314;2023-06-22T01:41:42;100517.22;;;24.79;59.65
60258;BME280;46115;44.484;11.314;2023-06-22T01:45:47;100506.06;;;24.74;59.21
60258;BME280;46115;44.484;11.314;2023-06-22T01:49:50;100479.56;;;24.70;59.13
60258;BME280;46115;44.484;11.314;2023-06-22T01:53:55;100513.19;;;24.92;58.64
60258;BME280;46115;44.484;11.314;2023-06-22T01:57:58;100500.50;;;24.92;58.13
60258;BME280;46115;44.484;11.314;2023-06-22T02:02:05;100460.47;;;24.87;57.69
60258;BME280;46115;44.484;11.314;2023-06-22T02:06:14;100496.88;;;25.01;56.85
60258;BME280;46115;44.484;11.314;2023-06-22T02:10:21;100516.31;;;25.37;55.68
60258;BME280;46115;44.484;11.314;2023-06-22T02:14:25;100512.25;;;25.17;56.48
60258;BME280;46115;44.484;11.314;2023-06-22T02:18:30;100478.03;;;24.83;55.45
60258;BME280;46115;44.484;11.314;2023-06-22T02:22:33;100519.69;;;25.23;55.79
60258;BME280;46115;44.484;11.314;2023-06-22T02:26:37;100521.53;;;25.06;55.91
60258;BME280;46115;44.484;11.314;2023-06-22T02:30:41;100525.78;;;25.09;55.15
60258;BME280;46115;44.484;11.314;2023-06-22T02:34:45;100525.25;;;25.13;54.97
60258;BME280;46115;44.484;11.314;2023-06-22T02:38:50;100526.78;;;25.00;55.64
60258;BME280;46115;44.484;11.314;2023-06-22T02:42:53;100532.69;;;25.11;55.40
60258;BME280;46115;44.484;11.314;2023-06-22T02:46:55;100536.75;;;25.07;55.53
60258;BME280;46115;44.484;11.314;2023-06-22T02:50:59;100517.94;;;24.89;56.05
60258;BME280;46115;44.484;11.314;2023-06-22T02:55:02;100531.00;;;25.02;56.58
60258;BME280;46115;44.484;11.314;2023-06-22T02:59:05;100541.56;;;24.71;56.33
60258;BME280;46115;44.484;11.314;2023-06-22T03:03:12;100533.63;;;24.78;56.12
60258;BME280;46115;44.484;11.314;2023-06-22T03:07:16;100546.47;;;24.76;56.65
60258;BME280;46115;44.484;11.314;2023-06-22T03:11:19;100545.69;;;24.49;58.27
60258;BME280;46115;44.484;11.314;2023-06-22T03:15:22;100540.56;;;24.04;60.49
60258;BME280;46115;44.484;11.314;2023-06-22T03:19:26;100549.63;;;23.95;60.83
60258;BME280;46115;44.484;11.314;2023-06-22T03:23:32;100552.25;;;23.87;60.90
60258;BME280;46115;44.484;11.314;2023-06-22T03:27:34;100549.47;;;23.97;60.53
60258;BME280;46115;44.484;11.314;2023-06-22T03:31:37;100556.66;;;24.22;59.79
60258;BME280;46115;44.484;11.314;2023-06-22T03:35:41;100569.66;;;23.92;59.99
60258;BME280;46115;44.484;11.314;2023-06-22T03:39:47;100570.88;;;23.72;60.78
60258;BME280;46115;44.484;11.314;2023-06-22T03:43:51;100572.75;;;23.98;59.96
60258;BME280;46115;44.484;11.314;2023-06-22T03:47:53;100583.63;;;23.88;60.35
60258;BME280;46115;44.484;11.314;2023-06-22T03:51:56;100580.94;;;23.88;60.71
60258;BME280;46115;44.484;11.314;2023-06-22T03:56:00;100577.50;;;23.78;61.18
60258;BME280;46115;44.484;11.314;2023-06-22T04:00:03;100573.41;;;23.74;61.45
60258;BME280;46115;44.484;11.314;2023-06-22T04:04:13;100581.34;;;23.75;61.32
60258;BME280;46115;44.484;11.314;2023-06-22T04:08:16;100585.72;;;23.94;60.75
60258;BME280;46115;44.484;11.314;2023-06-22T04:12:20;100577.91;;;23.65;61.14
60258;BME280;46115;44.484;11.314;2023-06-22T04:16:22;100580.31;;;23.94;60.62
60258;BME280;46115;44.484;11.314;2023-06-22T04:20:25;100576.13;;;23.74;61.17
60258;BME280;46115;44.484;11.314;2023-06-22T04:24:27;100578.41;;;23.86;61.31
60258;BME280;46115;44.484;11.314;2023-06-22T04:28:31;100554.69;;;23.98;60.54
60258;BME280;46115;44.484;11.314;2023-06-22T04:32:36;100568.44;;;23.87;60.75
60258;BME280;46115;44.484;11.314;2023-06-22T04:36:40;100574.78;;;23.78;60.69
60258;BME280;46115;44.484;11.314;2023-06-22T04:40:42;100573.25;;;23.75;60.99
60258;BME280;46115;44.484;11.314;2023-06-22T04:44:46;100571.25;;;23.77;61.33
60258;BME280;46115;44.484;11.314;2023-06-22T04:48:49;100570.09;;;23.80;61.26
60258;BME280;46115;44.484;11.314;2023-06-22T04:52:51;100580.84;;;23.98;60.95
60258;BME280;46115;44.484;11.314;2023-06-22T04:56:54;100583.31;;;23.65;62.22
60258;BME280;46115;44.484;11.314;2023-06-22T05:01:00;100577.59;;;23.68;61.93
60258;BME280;46115;44.484;11.314;2023-06-22T05:05:02;100588.19;;;24.13;60.68
60258;BME280;46115;44.484;11.314;2023-06-22T05:09:08;100591.75;;;24.40;59.28
60258;BME280;46115;44.484;11.314;2023-06-22T05:13:10;100581.66;;;24.50;59.48
60258;BME280;46115;44.484;11.314;2023-06-22T05:17:14;100576.84;;;24.70;58.85
60258;BME280;46115;44.484;11.314;2023-06-22T05:21:25;100587.69;;;24.78;58.48
60258;BME280;46115;44.484;11.314;2023-06-22T05:25:28;100586.63;;;25.05;58.15
60258;BME280;46115;44.484;11.314;2023-06-22T05:29:33;100589.16;;;24.98;58.80
60258;BME280;46115;44.484;11.314;2023-06-22T05:33:37;100588.13;;;24.99;58.83
60258;BME280;46115;44.484;11.314;2023-06-22T05:37:40;100583.09;;;25.29;59.18
60258;BME280;46115;44.484;11.314;2023-06-22T05:41:44;100585.84;;;25.45;59.30
60258;BME280;46115;44.484;11.314;2023-06-22T05:45:47;100581.25;;;25.45;59.03
60258;BME280;46115;44.484;11.314;2023-06-22T05:49:51;100584.34;;;25.75;58.67
60258;BME280;46115;44.484;11.314;2023-06-22T05:53:53;100593.59;;;25.97;58.03
60258;BME280;46115;44.484;11.314;2023-06-22T05:57:56;100590.88;;;26.37;57.07
60258;BME280;46115;44.484;11.314;2023-06-22T06:01:58;100591.72;;;26.69;56.25
60258;BME280;46115;44.484;11.314;2023-06-22T06:06:02;100578.78;;;26.48;55.90
60258;BME280;46115;44.484;11.314;2023-06-22T06:10:06;100585.22;;;26.47;56.62
60258;BME280;46115;44.484;11.314;2023-06-22T06:14:09;100567.97;;;26.40;55.77
60258;BME280;46115;44.484;11.314;2023-06-22T06:18:11;100573.38;;;26.32;56.21
60258;BME280;46115;44.484;11.314;2023-06-22T06:22:15;100573.41;;;26.24;56.82
60258;BME280;46115;44.484;11.314;2023-06-22T06:26:18;100586.44;;;26.36;56.03
60258;BME280;46115;44.484;11.314;2023-06-22T06:30:29;100580.59;;;26.56;55.59
60258;BME280;46115;44.484;11.314;2023-06-22T06:34:31;100593.19;;;26.49;54.56
60258;BME280;46115;44.484;11.314;2023-06-22T06:38:35;100596.03;;;26.55;54.81
60258;BME280;46115;44.484;11.314;2023-06-22T06:42:42;100596.56;;;26.51;56.10
60258;BME280;46115;44.484;11.314;2023-06-22T06:46:46;100595.38;;;26.53;56.33
60258;BME280;46115;44.484;11.314;2023-06-22T06:50:48;100584.31;;;26.63;54.12
60258;BME280;46115;44.484;11.314;2023-06-22T06:54:52;100588.69;;;26.64;56.32
60258;BME280;46115;44.484;11.314;2023-06-22T06:58:55;100581.53;;;26.40;57.95
60258;BME280;46115;44.484;11.314;2023-06-22T07:02:57;100592.88;;;26.44;56.61
60258;BME280;46115;44.484;11.314;2023-06-22T07:07:01;100588.69;;;26.72;56.88
60258;BME280;46115;44.484;11.314;2023-06-22T07:11:05;100592.34;;;27.18;55.14
60258;BME280;46115;44.484;11.314;2023-06-22T07:15:09;100584.03;;;27.20;54.27
60258;BME280;46115;44.484;11.314;2023-06-22T07:19:13;100585.03;;;27.87;52.71
60258;BME280;46115;44.484;11.314;2023-06-22T07:23:16;100567.00;;;28.24;51.23
60258;BME280;46115;44.484;11.314;2023-06-22T07:27:20;100555.38;;;28.60;50.29
60258;BME280;46115;44.484;11.314;2023-06-22T07:31:24;100559.72;;;28.75;49.31
60258;BME280;46115;44.484;11.314;2023-06-22T07:35:26;100503.44;;;28.91;48.43
60258;BME280;46115;44.484;11.314;2023-06-22T07:39:29;100563.81;;;30.49;46.31
60258;BME280;46115;44.484;11.314;2023-06-22T07:43:33;100563.50;;;31.32;45.97
60258;BME280;46115;44.484;11.314;2023-06-22T07:47:38;100555.34;;;31.65;45.80
60258;BME280;46115;44.484;11.314;2023-06-22T07:51:40;100553.25;;;31.68;45.38
60258;BME280;46115;44.484;11.314;2023-06-22T07:55:43;100533.72;;;32.62;42.64
60258;BME280;46115;44.484;11.314;2023-06-22T07:59:47;100543.69;;;33.32;41.23
60258;BME280;46115;44.484;11.314;2023-06-22T08:03:50;100554.97;;;33.42;42.31
60258;BME280;46115;44.484;11.314;2023-06-22T08:07:52;100554.75;;;33.94;41.97
60258;BME280;46115;44.484;11.314;2023-06-22T08:11:56;100555.38;;;33.96;42.26
60258;BME280;46115;44.484;11.314;2023-06-22T08:16:00;100552.94;;;33.88;42.10
60258;BME280;46115;44.484;11.314;2023-06-22T08:20:03;100548.13;;;33.83;42.25
60258;BME280;46115;44.484;11.314;2023-06-22T08:24:10;100519.56;;;34.64;38.95
60258;BME280;46115;44.484;11.314;2023-06-22T08:28:12;100550.34;;;33.68;40.81
60258;BME280;46115;44.484;11.314;2023-06-22T08:32:16;100543.63;;;33.89;40.91
60258;BME280;46115;44.484;11.314;2023-06-22T08:36:19;100553.66;;;33.76;40.54
60258;BME280;46115;44.484;11.314;2023-06-22T08:40:22;100537.97;;;34.08;40.64
60258;BME280;46115;44.484;11.314;2023-06-22T08:44:25;100550.56;;;33.66;41.37
60258;BME280;46115;44.484;11.314;2023-06-22T08:48:29;100548.97;;;34.45;40.45
60258;BME280;46115;44.484;11.314;2023-06-22T08:52:32;100545.72;;;35.15;39.01
60258;BME280;46115;44.484;11.314;2023-06-22T08:56:34;100548.63;;;34.71;38.83
60258;BME280;46115;44.484;11.314;2023-06-22T09:00:37;100542.00;;;35.51;39.96
60258;BME280;46115;44.484;11.314;2023-06-22T09:04:41;100552.28;;;35.44;40.91
60258;BME280;46115;44.484;11.314;2023-06-22T09:08:43;100552.06;;;35.69;40.24
60258;BME280;46115;44.484;11.314;2023-06-22T09:12:47;100545.50;;;35.16;40.81
60258;BME280;46115;44.484;11.314;2023-06-22T09:16:50;100529.19;;;35.33;36.86
60258;BME280;46115;44.484;11.314;2023-06-22T09:20:54;100531.84;;;35.51;36.72
60258;BME280;46115;44.484;11.314;2023-06-22T09:24:57;100528.16;;;35.57;32.23
60258;BME280;46115;44.484;11.314;2023-06-22T09:29:00;100518.09;;;34.80;32.59
60258;BME280;46115;44.484;11.314;2023-06-22T09:33:03;100513.34;;;35.05;32.90
60258;BME280;46115;44.484;11.314;2023-06-22T09:37:07;100516.50;;;34.90;31.86
60258;BME280;46115;44.484;11.314;2023-06-22T09:41:09;100506.41;;;35.56;31.36
60258;BME280;46115;44.484;11.314;2023-06-22T09:45:12;100501.38;;;34.69;32.01
60258;BME280;46115;44.484;11.314;2023-06-22T09:49:15;100496.75;;;35.12;33.23
60258;BME280;46115;44.484;11.314;2023-06-22T09:53:19;100499.50;;;35.12;33.38
60258;BME280;46115;44.484;11.314;2023-06-22T09:57:21;100502.50;;;35.22;30.90
60258;BME280;46115;44.484;11.314;2023-06-22T10:01:24;100494.06;;;35.35;34.45
60258;BME280;46115;44.484;11.314;2023-06-22T10:05:26;100492.81;;;35.31;33.67
60258;BME280;46115;44.484;11.314;2023-06-22T10:09:30;100490.84;;;35.61;33.88
60258;BME280;46115;44.484;11.314;2023-06-22T10:13:33;100486.88;;;34.92;35.04
60258;BME280;46115;44.484;11.314;2023-06-22T10:17:35;100487.78;;;35.05;34.06
60258;BME280;46115;44.484;11.314;2023-06-22T10:21:38;100482.66;;;35.20;34.33
60258;BME280;46115;44.484;11.314;2023-06-22T10:25:42;100497.44;;;35.60;34.77
60258;BME280;46115;44.484;11.314;2023-06-22T10:29:44;100492.03;;;35.00;34.87
60258;BME280;46115;44.484;11.314;2023-06-22T10:33:49;100493.63;;;34.78;32.98
60258;BME280;46115;44.484;11.314;2023-06-22T10:37:52;100494.00;;;34.52;33.86
60258;BME280;46115;44.484;11.314;2023-06-22T10:41:57;100493.56;;;34.66;32.94
60258;BME280;46115;44.484;11.314;2023-06-22T10:45:59;100501.13;;;35.01;33.72
60258;BME280;46115;44.484;11.314;2023-06-22T10:50:03;100496.47;;;34.71;34.91
60258;BME280;46115;44.484;11.314;2023-06-22T10:54:06;100474.41;;;35.08;34.88
60258;BME280;46115;44.484;11.314;2023-06-22T10:58:09;100478.91;;;35.02;34.09
60258;BME280;46115;44.484;11.314;2023-06-22T11:02:12;100478.16;;;34.84;35.09
60258;BME280;46115;44.484;11.314;2023-06-22T11:06:15;100467.53;;;34.69;33.66
60258;BME280;46115;44.484;11.314;2023-06-22T11:10:17;100466.63;;;34.45;35.70
60258;BME280;46115;44.484;11.314;2023-06-22T11:14:21;100452.06;;;34.45;35.66
60258;BME280;46115;44.484;11.314;2023-06-22T11:18:24;100458.47;;;34.68;36.04
60258;BME280;46115;44.484;11.314;2023-06-22T11:22:26;100441.88;;;33.97;34.54
60258;BME280;46115;44.484;11.314;2023-06-22T11:26:31;100413.91;;;33.70;35.25
60258;BME280;46115;44.484;11.314;2023-06-22T11:30:35;100443.13;;;34.01;34.55
60258;BME280;46115;44.484;11.314;2023-06-22T11:34:38;100442.50;;;34.35;35.92
60258;BME280;46115;44.484;11.314;2023-06-22T11:38:40;100433.66;;;34.15;35.42
60258;BME280;46115;44.484;11.314;2023-06-22T11:42:43;100427.78;;;33.93;37.54
60258;BME280;46115;44.484;11.314;2023-06-22T11:46:47;100400.66;;;33.67;36.35
60258;BME280;46115;44.484;11.314;2023-06-22T11:50:50;100384.69;;;34.00;37.26
60258;BME280;46115;44.484;11.314;2023-06-22T11:54:52;100383.44;;;33.78;38.19
60258;BME280;46115;44.484;11.314;2023-06-22T11:58:55;100373.53;;;33.95;35.42
60258;BME280;46115;44.484;11.314;2023-06-22T12:03:02;100367.91;;;33.29;36.42
60258;BME280;46115;44.484;11.314;2023-06-22T12:07:05;100359.53;;;33.24;36.60
60258;BME280;46115;44.484;11.314;2023-06-22T12:11:07;100356.63;;;33.80;35.00
60258;BME280;46115;44.484;11.314;2023-06-22T12:15:10;100344.31;;;33.34;34.72
60258;BME280;46115;44.484;11.314;2023-06-22T12:19:14;100339.91;;;33.27;34.91
60258;BME280;46115;44.484;11.314;2023-06-22T12:23:17;100338.75;;;33.41;34.67
60258;BME280;46115;44.484;11.314;2023-06-22T12:27:21;100329.00;;;33.45;36.75
60258;BME280;46115;44.484;11.314;2023-06-22T12:31:24;100330.81;;;33.51;35.68
60258;BME280;46115;44.484;11.314;2023-06-22T12:35:27;100338.81;;;33.53;36.82
60258;BME280;46115;44.484;11.314;2023-06-22T12:39:30;100338.34;;;33.56;37.02
60258;BME280;46115;44.484;11.314;2023-06-22T12:43:33;100313.41;;;33.45;36.04
60258;BME280;46115;44.484;11.314;2023-06-22T12:47:35;100324.06;;;33.72;38.07
60258;BME280;46115;44.484;11.314;2023-06-22T12:51:41;100293.44;;;33.57;36.38
60258;BME280;46115;44.484;11.314;2023-06-22T12:55:44;100330.47;;;33.66;36.16
60258;BME280;46115;44.484;11.314;2023-06-22T12:59:46;100322.53;;;33.76;35.99
60258;BME280;46115;44.484;11.314;2023-06-22T13:03:49;100319.88;;;33.33;35.71
60258;BME280;46115;44.484;11.314;2023-06-22T13:07:53;100314.66;;;33.79;36.17
60258;BME280;46115;44.484;11.314;2023-06-22T13:11:56;100315.28;;;33.63;34.44
60258;BME280;46115;44.484;11.314;2023-06-22T13:15:58;100310.34;;;33.90;35.72
60258;BME280;46115;44.484;11.314;2023-06-22T13:20:01;100312.09;;;33.48;36.37
60258;BME280;46115;44.484;11.314;2023-06-22T13:24:07;100309.91;;;33.38;34.22
60258;BME280;46115;44.484;11.314;2023-06-22T13:28:09;100308.44;;;33.72;35.26
60258;BME280;46115;44.484;11.314;2023-06-22T13:32:14;100311.47;;;33.64;37.41
60258;BME280;46115;44.484;11.314;2023-06-22T13:36:17;100293.28;;;33.52;33.83
60258;BME280;46115;44.484;11.314;2023-06-22T13:40:21;100289.34;;;33.66;35.02
60258;BME280;46115;44.484;11.314;2023-06-22T13:44:23;100290.16;;;33.85;34.12
60258;BME280;46115;44.484;11.314;2023-06-22T13:48:29;100291.97;;;33.91;34.94
60258;BME280;46115;44.484;11.314;2023-06-22T13:52:32;100294.63;;;33.97;36.68
60258;BME280;46115;44.484;11.314;2023-06-22T13:56:36;100279.22;;;33.66;36.54
60258;BME280;46115;44.484;11.314;2023-06-22T14:00:38;100277.59;;;33.77;35.49
60258;BME280;46115;44.484;11.314;2023-06-22T14:04:41;100272.78;;;33.91;34.86
60258;BME280;46115;44.484;11.314;2023-06-22T14:08:43;100274.44;;;33.92;35.95
60258;BME280;46115;44.484;11.314;2023-06-22T14:12:47;100274.25;;;33.75;35.69
60258;BME280;46115;44.484;11.314;2023-06-22T14:16:50;100265.94;;;33.63;36.58
60258;BME280;46115;44.484;11.314;2023-06-22T14:20:53;100276.81;;;33.88;34.74
60258;BME280;46115;44.484;11.314;2023-06-22T14:24:55;100278.59;;;34.13;35.67
60258;BME280;46115;44.484;11.314;2023-06-22T14:29:00;100276.25;;;33.98;37.00
60258;BME280;46115;44.484;11.314;2023-06-22T14:33:02;100276.84;;;33.70;37.93
60258;BME280;46115;44.484;11.314;2023-06-22T14:37:06;100258.34;;;33.65;37.30
60258;BME280;46115;44.484;11.314;2023-06-22T14:41:08;100249.59;;;33.57;37.91
60258;BME280;46115;44.484;11.314;2023-06-22T14:45:12;100269.38;;;33.77;39.73
60258;BME280;46115;44.484;11.314;2023-06-22T14:49:15;100267.44;;;33.47;42.91
60258;BME280;46115;44.484;11.314;2023-06-22T14:53:17;100244.09;;;33.75;40.66
60258;BME280;46115;44.484;11.314;2023-06-22T14:57:20;100275.47;;;33.61;41.65
60258;BME280;46115;44.484;11.314;2023-06-22T15:01:25;100271.53;;;33.57;40.77
60258;BME280;46115;44.484;11.314;2023-06-22T15:05:28;100267.78;;;33.51;42.42
60258;BME280;46115;44.484;11.314;2023-06-22T15:09:30;100265.75;;;33.46;45.33
60258;BME280;46115;44.484;11.314;2023-06-22T15:13:34;100254.03;;;33.39;45.38
60258;BME280;46115;44.484;11.314;2023-06-22T15:17:38;100269.19;;;33.42;45.03
60258;BME280;46115;44.484;11.314;2023-06-22T15:21:41;100265.69;;;33.35;46.24
60258;BME280;46115;44.484;11.314;2023-06-22T15:25:43;100260.03;;;33.48;46.73
60258;BME280;46115;44.484;11.314;2023-06-22T15:29:47;100266.75;;;33.34;50.66
60258;BME280;46115;44.484;11.314;2023-06-22T15:33:50;100265.00;;;33.39;49.39
60258;BME280;46115;44.484;11.314;2023-06-22T15:37:53;100284.59;;;33.18;48.32
60258;BME280;46115;44.484;11.314;2023-06-22T15:41:56;100286.19;;;33.07;50.91
60258;BME280;46115;44.484;11.314;2023-06-22T15:45:58;100274.63;;;33.24;51.20
60258;BME280;46115;44.484;11.314;2023-06-22T15:50:02;100260.13;;;32.80;55.47
60258;BME280;46115;44.484;11.314;2023-06-22T15:54:05;100242.75;;;32.68;53.97
60258;BME280;46115;44.484;11.314;2023-06-22T15:58:07;100229.59;;;32.76;53.68
60258;BME280;46115;44.484;11.314;2023-06-22T16:02:11;100243.50;;;32.75;56.74
60258;BME280;46115;44.484;11.314;2023-06-22T16:06:15;100245.19;;;32.76;59.05
60258;BME280;46115;44.484;11.314;2023-06-22T16:10:18;100244.81;;;32.47;60.11
60258;BME280;46115;44.484;11.314;2023-06-22T16:14:20;100235.66;;;32.85;59.78
60258;BME280;46115;44.484;11.314;2023-06-22T16:18:23;100226.63;;;33.03;58.34
60258;BME280;46115;44.484;11.314;2023-06-22T16:22:27;100225.38;;;32.55;61.81
60258;BME280;46115;44.484;11.314;2023-06-22T16:26:30;100225.53;;;32.61;58.93
60258;BME280;46115;44.484;11.314;2023-06-22T16:30:33;100223.47;;;32.56;57.63
60258;BME280;46115;44.484;11.314;2023-06-22T16:34:35;100225.19;;;32.75;55.43
60258;BME280;46115;44.484;11.314;2023-06-22T16:38:39;100229.06;;;32.68;56.83
60258;BME280;46115;44.484;11.314;2023-06-22T16:42:44;100214.56;;;32.42;56.33
60258;BME280;46115;44.484;11.314;2023-06-22T16:46:47;100216.31;;;32.55;58.21
60258;BME280;46115;44.484;11.314;2023-06-22T16:50:50;100183.44;;;32.12;58.04
60258;BME280;46115;44.484;11.314;2023-06-22T16:54:55;100208.31;;;32.04;57.95
60258;BME280;46115;44.484;11.314;2023-06-22T16:58:58;100200.66;;;32.12;54.44
60258;BME280;46115;44.484;11.314;2023-06-22T17:03:03;100190.88;;;31.67;53.86
60258;BME280;46115;44.484;11.314;2023-06-22T17:07:10;100181.38;;;31.31;55.23
60258;BME280;46115;44.484;11.314;2023-06-22T17:11:15;100197.22;;;31.54;51.70
60258;BME280;46115;44.484;11.314;2023-06-22T17:15:20;100196.13;;;31.68;50.21
60258;BME280;46115;44.484;11.314;2023-06-22T17:19:23;100195.44;;;31.34;50.38
60258;BME280;46115;44.484;11.314;2023-06-22T17:23:27;100185.94;;;31.44;51.74
60258;BME280;46115;44.484;11.314;2023-06-22T17:27:33;100178.44;;;31.32;51.46
60258;BME280;46115;44.484;11.314;2023-06-22T17:31:36;100171.34;;;31.63;49.92
60258;BME280;46115;44.484;11.314;2023-06-22T17:35:45;100174.53;;;31.53;50.04
60258;BME280;46115;44.484;11.314;2023-06-22T17:39:51;100176.19;;;31.54;48.64
60258;BME280;46115;44.484;11.314;2023-06-22T17:43:57;100181.53;;;31.81;46.94
60258;BME280;46115;44.484;11.314;2023-06-22T17:48:00;100160.06;;;31.84;47.29
60258;BME280;46115;44.484;11.314;2023-06-22T17:52:03;100172.00;;;31.58;48.89
60258;BME280;46115;44.484;11.314;2023-06-22T17:56:06;100186.06;;;31.55;47.77
60258;BME280;46115;44.484;11.314;2023-06-22T18:00:13;100198.84;;;31.68;46.23
60258;BME280;46115;44.484;11.314;2023-06-22T18:04:18;100187.78;;;31.50;49.30
60258;BME280;46115;44.484;11.314;2023-06-22T18:08:25;100202.16;;;31.39;49.13
60258;BME280;46115;44.484;11.314;2023-06-22T18:12:28;100180.78;;;31.29;48.01
60258;BME280;46115;44.484;11.314;2023-06-22T18:16:33;100180.16;;;31.14;49.38
60258;BME280;46115;44.484;11.314;2023-06-22T18:20:37;100186.44;;;31.27;47.10
60258;BME280;46115;44.484;11.314;2023-06-22T18:24:42;100201.78;;;31.22;48.59
60258;BME280;46115;44.484;11.314;2023-06-22T18:28:45;100171.41;;;30.85;47.42
60258;BME280;46115;44.484;11.314;2023-06-22T18:32:50;100206.66;;;31.00;49.01
60258;BME280;46115;44.484;11.314;2023-06-22T18:36:55;100194.25;;;31.04;47.84
60258;BME280;46115;44.484;11.314;2023-06-22T18:41:02;100177.41;;;31.14;47.46
60258;BME280;46115;44.484;11.314;2023-06-22T18:45:21;100189.28;;;31.46;47.33
60258;BME280;46115;44.484;11.314;2023-06-22T18:49:30;100172.44;;;31.04;47.91
60258;BME280;46115;44.484;11.314;2023-06-22T18:53:33;100166.00;;;30.79;49.52
60258;BME280;46115;44.484;11.314;2023-06-22T18:57:36;100172.50;;;30.78;49.52
60258;BME280;46115;44.484;11.314;2023-06-22T19:01:39;100167.50;;;30.68;48.78
60258;BME280;46115;44.484;11.314;2023-06-22T19:05:43;100174.84;;;30.67;48.69
60258;BME280;46115;44.484;11.314;2023-06-22T19:10:22;100176.50;;;30.75;47.98
60258;BME280;46115;44.484;11.314;2023-06-22T19:14:25;100193.47;;;30.84;47.54
60258;BME280;46115;44.484;11.314;2023-06-22T19:18:32;100198.34;;;30.68;48.08
60258;BME280;46115;44.484;11.314;2023-06-22T19:22:47;100210.91;;;30.50;46.60
60258;BME280;46115;44.484;11.314;2023-06-22T19:26:54;100211.13;;;30.55;45.97
60258;BME280;46115;44.484;11.314;2023-06-22T19:30:58;100200.63;;;30.45;45.21
60258;BME280;46115;44.484;11.314;2023-06-22T19:35:02;100183.00;;;30.48;45.33
60258;BME280;46115;44.484;11.314;2023-06-22T19:39:07;100203.78;;;30.55;44.53
60258;BME280;46115;44.484;11.314;2023-06-22T19:43:09;100207.78;;;30.66;43.68
60258;BME280;46115;44.484;11.314;2023-06-22T19:47:12;100219.56;;;30.60;43.67
60258;BME280;46115;44.484;11.314;2023-06-22T19:51:16;100225.81;;;30.54;43.85
60258;BME280;46115;44.484;11.314;2023-06-22T19:55:20;100228.75;;;30.46;43.30
60258;BME280;46115;44.484;11.314;2023-06-22T22:06:08;100169.88;;;29.03;31.69
60258;BME280;46115;44.484;11.314;2023-06-22T22:10:11;100162.03;;;28.80;30.92
60258;BME280;46115;44.484;11.314;2023-06-22T22:14:15;100152.47;;;28.91;31.06
60258;BME280;46115;44.484;11.314;2023-06-22T22:18:18;100145.19;;;28.70;30.67
60258;BME280;46115;44.484;11.314;2023-06-22T22:22:22;100137.72;;;28.78;30.85
60258;BME280;46115;44.484;11.314;2023-06-22T22:26:25;100131.75;;;28.90;31.81
60258;BME280;46115;44.484;11.314;2023-06-22T22:30:28;100126.81;;;28.72;30.40
60258;BME280;46115;44.484;11.314;2023-06-22T22:34:30;100124.56;;;28.82;30.10
60258;BME280;46115;44.484;11.314;2023-06-22T22:38:34;100118.44;;;28.73;30.04
60258;BME280;46115;44.484;11.314;2023-06-22T22:42:37;100109.66;;;28.78;30.22
60258;BME280;46115;44.484;11.314;2023-06-22T22:46:39;100108.75;;;28.57;30.32
60258;BME280;46115;44.484;11.314;2023-06-22T22:50:42;100092.06;;;28.74;31.30
60258;BME280;46115;44.484;11.314;2023-06-22T22:54:46;100099.13;;;28.62;30.55
60258;BME280;46115;44.484;11.314;2023-06-22T22:58:48;100095.59;;;28.68;30.72
60258;BME280;46115;44.484;11.314;2023-06-22T23:02:51;100083.03;;;28.60;30.67
60258;BME280;46115;44.484;11.314;2023-06-22T23:06:53;100079.66;;;28.58;31.94